Time;durP1;ratioP1;P1;durP2;ratioP2;P2;SDS_P1;SDS_P2;PMS_P1;PMS_P2;Temp;Humidity;BMP_temperature;BMP_pressure;BME280_temperature;BME280_humidity;BME280_pressure;Samples;Min_cycle;Max_cycle;Signal;HPM_P1;HPM_P2
2022/06/12 00:01:31;;;;;;;5.40;2.10;;;;;;;16.39;71.75;99187.81;5094308;28;20635;-52
2022/06/12 00:04:00;;;;;;;7.00;2.30;;;;;;;16.45;71.50;99187.09;5094353;28;20191;-51
2022/06/12 00:06:27;;;;;;;5.77;2.30;;;;;;;16.45;71.77;99192.38;5094275;28;20842;-51
2022/06/12 00:08:55;;;;;;;5.43;2.50;;;;;;;16.45;72.13;99192.38;5093978;28;20207;-51
2022/06/12 00:11:28;;;;;;;5.17;2.27;;;;;;;16.58;71.91;99189.16;5094733;28;20214;-51
2022/06/12 00:13:58;;;;;;;2.83;2.10;;;;;;;16.49;71.60;99196.28;5094151;28;20206;-51
2022/06/12 00:16:27;;;;;;;3.60;2.30;;;;;;;16.43;72.50;99191.72;5093968;28;20280;-52
2022/06/12 00:18:55;;;;;;;3.77;2.40;;;;;;;16.37;73.01;99190.63;5092681;28;20219;-51
2022/06/12 00:21:26;;;;;;;4.73;2.50;;;;;;;16.27;74.17;99190.03;5094303;28;20616;-51
2022/06/12 00:23:56;;;;;;;5.20;2.53;;;;;;;16.24;76.01;99195.63;5094045;28;20275;-52
2022/06/12 00:26:28;;;;;;;5.47;2.40;;;;;;;16.17;76.05;99192.06;5092499;28;20207;-51
2022/06/12 00:28:59;;;;;;;3.90;2.50;;;;;;;16.08;74.31;99194.72;5093808;28;20207;-51
2022/06/12 00:31:25;;;;;;;3.77;2.23;;;;;;;16.04;74.32;99190.81;5093799;28;20272;-51
2022/06/12 00:33:53;;;;;;;5.97;2.47;;;;;;;16.01;74.13;99193.78;5093843;28;20644;-51
2022/06/12 00:36:20;;;;;;;8.27;2.43;;;;;;;16.01;75.75;99198.25;5093620;28;20188;-51
2022/06/12 00:38:49;;;;;;;4.17;2.10;;;;;;;16.06;74.13;99196.72;5093343;28;20687;-51
2022/06/12 00:41:16;;;;;;;4.43;2.33;;;;;;;16.13;74.04;99190.75;5093394;28;20198;-51
2022/06/12 00:43:44;;;;;;;3.90;2.30;;;;;;;16.14;73.98;99193.22;5092429;28;20201;-51
2022/06/12 00:46:40;;;;;;;6.17;2.10;;;;;;;16.13;74.89;99185.50;5093722;28;20208;-51
2022/06/12 00:49:10;;;;;;;4.40;2.30;;;;;;;16.11;75.61;99196.22;5093233;28;20206;-51
2022/06/12 00:51:38;;;;;;;5.00;2.13;;;;;;;16.08;76.23;99192.09;5093558;28;20188;-53
2022/06/12 00:54:09;;;;;;;7.10;2.50;;;;;;;15.99;75.47;99187.84;5093440;28;20206;-51
2022/06/12 00:56:42;;;;;;;5.40;2.67;;;;;;;15.91;75.63;99194.00;5093343;28;20192;-51
2022/06/12 00:59:12;;;;;;;5.97;2.57;;;;;;;15.94;78.14;99195.44;5093226;28;20200;-52
2022/06/12 01:01:46;;;;;;;7.43;2.23;;;;;;;15.89;77.44;99192.53;5093393;28;20187;-51
2022/06/12 01:07:05;;;;;;;3.20;2.30;;;;;;;15.81;78.21;99197.81;5093207;28;20210;-52
2022/06/12 01:09:38;;;;;;;3.57;2.10;;;;;;;15.77;76.79;99187.63;5092967;28;20205;-53
2022/06/12 01:12:09;;;;;;;6.23;2.67;;;;;;;15.79;76.17;99188.28;5093198;28;20193;-54
2022/06/12 01:14:42;;;;;;;5.23;2.20;;;;;;;15.84;76.43;99179.03;5093241;28;20285;-54
2022/06/12 01:17:11;;;;;;;2.63;2.40;;;;;;;15.85;77.95;99178.06;5093018;28;20193;-54
2022/06/12 01:19:42;;;;;;;3.47;2.30;;;;;;;15.87;77.74;99178.72;5093036;28;20253;-54
2022/06/12 01:22:47;;;;;;;4.30;2.23;;;;;;;15.78;78.04;99178.72;5093228;28;20233;-54
2022/06/12 01:25:44;;;;;;;3.83;1.90;;;;;;;15.79;78.34;99176.91;5092970;28;20193;-54
2022/06/12 01:28:44;;;;;;;5.27;2.43;;;;;;;15.75;77.90;99184.34;5092537;28;20235;-54
2022/06/12 01:31:36;;;;;;;5.60;2.73;;;;;;;15.86;77.26;99188.41;5093047;28;20196;-54
2022/06/12 01:34:18;;;;;;;3.27;2.30;;;;;;;15.84;79.05;99179.84;5092577;28;20182;-54
2022/06/12 01:36:54;;;;;;;4.47;2.30;;;;;;;15.87;77.78;99182.16;5092815;28;20666;-52
2022/06/12 01:39:30;;;;;;;5.63;2.30;;;;;;;15.91;77.29;99185.25;5092573;28;20755;-51
2022/06/12 01:42:12;;;;;;;3.57;2.10;;;;;;;15.83;77.72;99187.94;5092780;28;20599;-51
2022/06/12 01:44:49;;;;;;;5.30;2.50;;;;;;;15.75;78.76;99180.88;5092813;28;20282;-51
2022/06/12 01:47:25;;;;;;;4.37;2.30;;;;;;;15.69;79.68;99181.56;5092636;28;20225;-52
2022/06/12 01:50:01;;;;;;;4.97;2.23;;;;;;;15.62;79.37;99178.78;5092460;28;20187;-53
2022/06/12 01:52:36;;;;;;;3.77;2.20;;;;;;;15.52;79.44;99172.91;5093141;28;20227;-51
2022/06/12 01:55:11;;;;;;;3.50;2.50;;;;;;;15.41;79.35;99180.16;5093109;28;20188;-51
2022/06/12 01:57:45;;;;;;;6.67;3.03;;;;;;;15.36;79.46;99174.59;5092400;28;20232;-52
2022/06/12 02:00:18;;;;;;;4.93;2.67;;;;;;;15.29;79.49;99176.25;5092616;28;20431;-51
2022/06/12 02:03:10;;;;;;;5.90;2.17;;;;;;;15.22;80.39;99176.09;5093239;28;20242;-51
2022/06/12 02:05:42;;;;;;;6.37;2.93;;;;;;;15.22;80.13;99176.09;5092958;28;20200;-51
2022/06/12 02:08:16;;;;;;;5.67;2.60;;;;;;;15.22;80.12;99177.91;5092431;28;20214;-53
2022/06/12 02:10:54;;;;;;;5.80;2.40;;;;;;;15.23;79.10;99184.81;5092594;28;20214;-53
2022/06/12 02:13:26;;;;;;;4.13;2.53;;;;;;;15.21;81.97;99179.72;5092744;28;20249;-51
2022/06/12 02:16:00;;;;;;;3.50;2.50;;;;;;;15.09;81.38;99178.44;5092759;28;20535;-52
2022/06/12 02:18:33;;;;;;;5.93;2.67;;;;;;;15.07;82.69;99172.50;5096669;28;20744;-51
2022/06/12 02:21:06;;;;;;;3.50;2.60;;;;;;;14.97;82.79;99170.03;5096646;28;20211;-51
2022/06/12 02:23:40;;;;;;;4.97;2.70;;;;;;;15.00;83.05;99170.56;5096663;28;20186;-52
2022/06/12 02:26:12;;;;;;;8.07;3.00;;;;;;;14.91;83.55;99166.28;5096442;28;20186;-53
2022/06/12 02:28:45;;;;;;;5.20;2.70;;;;;;;14.82;83.23;99170.75;5096259;28;20202;-53
2022/06/12 02:31:22;;;;;;;5.77;2.67;;;;;;;14.85;82.36;99167.75;5096583;28;20182;-53
2022/06/12 02:33:55;;;;;;;4.33;2.50;;;;;;;14.82;82.59;99168.09;5095309;28;20237;-52
2022/06/12 02:36:26;;;;;;;5.33;2.77;;;;;;;14.85;83.50;99162.50;5095465;28;20201;-51
2022/06/12 02:38:58;;;;;;;6.13;2.50;;;;;;;14.81;84.05;99163.84;5096222;28;20221;-51
2022/06/12 02:41:30;;;;;;;4.97;2.23;;;;;;;14.72;83.69;99170.88;5096379;28;20216;-51
2022/06/12 02:44:04;;;;;;;3.03;2.53;;;;;;;14.75;83.43;99172.38;5096517;28;20546;-53
2022/06/12 02:46:38;;;;;;;6.50;2.80;;;;;;;14.71;83.68;99174.50;5096719;28;20282;-51
2022/06/12 02:49:09;;;;;;;4.13;2.70;;;;;;;14.63;84.20;99171.03;5096185;28;20274;-53
2022/06/12 02:51:42;;;;;;;8.57;3.93;;;;;;;14.60;84.38;99162.50;5096099;28;20196;-51
2022/06/12 02:54:16;;;;;;;4.37;2.57;;;;;;;14.59;84.01;99167.88;5094836;28;20649;-51
2022/06/12 02:56:48;;;;;;;3.50;2.63;;;;;;;14.65;83.14;99163.81;5096103;28;20201;-51
2022/06/12 02:59:26;;;;;;;5.33;2.70;;;;;;;14.63;83.60;99160.53;5095962;28;20203;-51
2022/06/12 03:02:08;;;;;;;7.00;2.80;;;;;;;14.61;83.21;99161.50;5096269;28;20679;-53
2022/06/12 03:04:41;;;;;;;5.17;2.97;;;;;;;14.56;83.48;99163.81;5096142;28;20169;-51
2022/06/12 03:07:10;;;;;;;6.40;2.70;;;;;;;14.63;85.67;99157.91;5095758;28;20218;-51
2022/06/12 03:09:38;;;;;;;5.47;2.80;;;;;;;14.60;85.30;99151.16;5094462;28;20194;-52
2022/06/12 03:12:08;;;;;;;4.50;3.13;;;;;;;14.64;84.84;99152.47;5094783;28;20192;-51
2022/06/12 03:14:35;;;;;;;3.90;2.77;;;;;;;14.55;85.42;99148.19;5095456;28;20191;-51
2022/06/12 03:17:05;;;;;;;4.23;2.90;;;;;;;14.58;83.97;99151.31;5095967;28;20188;-52
2022/06/12 03:19:42;;;;;;;4.90;2.77;;;;;;;14.63;84.13;99152.63;5095243;28;20232;-53
2022/06/12 03:22:20;;;;;;;3.43;2.70;;;;;;;14.70;84.76;99153.66;5095719;28;20512;-51
2022/06/12 03:25:03;;;;;;;3.47;2.80;;;;;;;14.67;84.67;99156.59;5095725;28;20278;-53
2022/06/12 03:27:44;;;;;;;4.57;2.83;;;;;;;14.63;83.64;99156.06;5095148;28;20280;-51
2022/06/12 03:30:18;;;;;;;4.47;2.70;;;;;;;14.71;83.55;99164.00;5095571;28;20192;-52
2022/06/12 03:32:53;;;;;;;5.20;2.80;;;;;;;14.72;84.15;99163.00;5095528;28;20551;-50
2022/06/12 03:35:32;;;;;;;6.77;3.20;;;;;;;14.82;83.36;99167.28;5095560;28;20280;-51
2022/06/12 03:38:05;;;;;;;5.57;2.57;;;;;;;14.76;84.45;99166.94;5093688;28;20305;-53
2022/06/12 03:40:38;;;;;;;5.03;2.40;;;;;;;14.81;83.79;99169.09;5095245;28;20226;-51
2022/06/12 03:43:11;;;;;;;6.13;2.60;;;;;;;14.81;83.90;99173.50;5095310;28;20267;-51
2022/06/12 03:45:45;;;;;;;4.77;2.77;;;;;;;14.79;84.11;99172.84;5095366;28;20181;-52
2022/06/12 03:48:24;;;;;;;4.67;2.70;;;;;;;14.88;84.65;99180.56;5094892;28;20214;-53
2022/06/12 03:51:03;;;;;;;3.50;2.97;;;;;;;14.94;86.58;99180.88;5095710;28;20549;-51
2022/06/12 03:53:38;;;;;;;6.27;2.83;;;;;;;14.87;85.87;99184.19;5095583;28;20240;-52
2022/06/12 03:59:02;;;;;;;4.23;3.03;;;;;;;14.90;85.39;99189.09;5094631;28;20204;-54
2022/06/12 04:01:31;;;;;;;8.37;3.00;;;;;;;14.93;85.87;99187.97;5094904;28;20266;-53
2022/06/12 04:04:03;;;;;;;6.63;2.90;;;;;;;14.97;85.08;99188.44;5094863;28;20649;-53
2022/06/12 04:06:32;;;;;;;5.30;3.17;;;;;;;15.01;85.20;99185.34;5094808;28;20182;-53
2022/06/12 04:09:04;;;;;;;4.63;2.87;;;;;;;15.10;84.69;99199.28;5094335;28;20249;-51
2022/06/12 04:11:35;;;;;;;6.07;3.20;;;;;;;15.19;85.12;99192.22;5094560;28;20183;-51
2022/06/12 04:14:05;;;;;;;5.53;3.53;;;;;;;15.21;86.02;99192.88;5094563;28;20199;-51
2022/06/12 04:16:36;;;;;;;5.67;2.87;;;;;;;15.22;86.03;99188.41;5094844;28;20214;-53
2022/06/12 04:19:08;;;;;;;7.67;3.37;;;;;;;15.21;86.03;99195.50;5093951;28;20203;-51
2022/06/12 04:21:40;;;;;;;5.20;2.93;;;;;;;15.24;85.89;99189.91;5094479;28;20240;-52
2022/06/12 04:24:14;;;;;;;5.43;2.97;;;;;;;15.29;86.59;99190.22;5094288;28;20253;-52
2022/06/12 04:26:47;;;;;;;3.43;2.90;;;;;;;15.31;86.23;99190.88;5094425;28;20665;-54
2022/06/12 04:29:25;;;;;;;4.53;2.90;;;;;;;15.33;86.34;99188.06;5094311;28;20215;-51
2022/06/12 04:31:56;;;;;;;6.17;2.90;;;;;;;15.33;85.80;99193.34;5094724;28;20190;-54
2022/06/12 04:34:28;;;;;;;5.20;3.00;;;;;;;15.36;86.79;99195.63;5094010;28;20269;-54
2022/06/12 04:36:58;;;;;;;3.60;2.57;;;;;;;15.40;88.17;99190.84;5094095;28;20185;-52
2022/06/12 04:39:31;;;;;;;8.77;3.13;;;;;;;15.41;88.58;99195.13;5092855;28;20421;-52
2022/06/12 04:42:01;;;;;;;3.37;2.80;;;;;;;15.43;87.97;99195.75;5093853;28;20182;-51
2022/06/12 04:44:28;;;;;;;4.20;2.60;;;;;;;15.46;87.19;99195.44;5093929;28;20225;-53
2022/06/12 04:46:58;;;;;;;6.13;2.87;;;;;;;15.48;86.56;99196.91;5093669;28;20558;-52
2022/06/12 04:49:30;;;;;;;4.83;3.33;;;;;;;15.58;87.95;99203.81;5093297;28;20207;-54
2022/06/12 04:51:59;;;;;;;5.23;3.10;;;;;;;15.58;88.11;99204.59;5093926;28;20195;-54
2022/06/12 04:54:47;;;;;;;4.47;2.60;;;;;;;15.61;87.37;99200.84;5093748;28;20699;-52
2022/06/12 04:57:16;;;;;;;2.87;2.63;;;;;;;15.63;87.72;99204.13;5093230;28;20178;-52
2022/06/12 04:59:45;;;;;;;5.20;2.60;;;;;;;15.66;88.28;99206.41;5092029;28;20220;-54
2022/06/12 05:02:13;;;;;;;5.57;2.80;;;;;;;15.64;88.91;99201.31;5092541;28;20666;-53
2022/06/12 05:04:42;;;;;;;6.57;3.00;;;;;;;15.68;88.28;99206.22;5091862;28;20191;-52
2022/06/12 05:07:13;;;;;;;7.50;3.13;;;;;;;15.70;87.94;99205.09;5093011;28;20203;-54
2022/06/12 05:09:41;;;;;;;5.70;2.90;;;;;;;15.73;87.90;99210.00;5091907;28;20192;-52
2022/06/12 05:12:13;;;;;;;6.93;3.03;;;;;;;15.75;88.86;99207.19;5093307;28;20188;-54
2022/06/12 05:14:41;;;;;;;7.63;3.30;;;;;;;15.79;89.69;99208.50;5093064;28;20198;-52
2022/06/12 05:17:13;;;;;;;3.97;3.00;;;;;;;15.78;90.09;99199.78;5093179;28;20239;-52
2022/06/12 05:19:45;;;;;;;3.53;3.07;;;;;;;15.83;89.89;99201.91;5092916;28;20244;-53
2022/06/12 05:22:13;;;;;;;6.43;4.40;;;;;;;15.87;89.38;99197.16;5093092;28;20205;-51
2022/06/12 05:24:40;;;;;;;4.10;2.70;;;;;;;15.90;89.16;99200.25;5092977;28;20183;-52
2022/06/12 05:27:12;;;;;;;5.33;2.90;;;;;;;15.97;88.42;99195.13;5093114;28;20651;-52
2022/06/12 05:29:41;;;;;;;4.37;2.77;;;;;;;16.05;88.05;99202.97;5092917;28;20195;-52
2022/06/12 05:32:12;;;;;;;4.40;2.70;;;;;;;16.15;87.43;99197.50;5092842;28;20217;-52
2022/06/12 05:34:42;;;;;;;4.80;3.10;;;;;;;16.21;87.46;99199.44;5093007;28;20625;-52
2022/06/12 05:37:10;;;;;;;4.13;2.67;;;;;;;16.32;86.29;99205.31;5092455;28;20191;-51
2022/06/12 05:39:38;;;;;;;5.57;2.87;;;;;;;16.52;87.07;99203.84;5092605;28;20187;-51
2022/06/12 05:42:06;;;;;;;3.47;3.00;;;;;;;16.98;86.63;99215.41;5092921;28;20184;-53
2022/06/12 05:44:51;;;;;;;2.90;2.60;;;;;;;17.38;84.83;99207.28;5092746;28;20190;-52
2022/06/12 05:47:19;;;;;;;4.83;3.47;;;;;;;17.62;82.80;99214.13;5092280;28;20250;-53
2022/06/12 05:49:48;;;;;;;4.60;2.80;;;;;;;17.81;79.93;99214.56;5092683;28;20273;-52
2022/06/12 05:52:16;;;;;;;4.60;2.77;;;;;;;17.93;78.44;99217.56;5092406;28;20238;-53
2022/06/12 05:54:43;;;;;;;4.40;2.97;;;;;;;18.13;76.70;99220.47;5092463;28;20184;-52
2022/06/12 05:57:10;;;;;;;3.50;2.87;;;;;;;18.31;77.13;99228.00;5092428;28;20205;-52
2022/06/12 05:59:37;;;;;;;4.03;3.07;;;;;;;18.51;76.50;99220.28;5091103;28;20192;-52
2022/06/12 06:02:04;;;;;;;5.60;3.03;;;;;;;18.71;75.26;99224.94;5093057;28;20193;-54
2022/06/12 06:04:32;;;;;;;4.77;3.33;;;;;;;18.83;74.25;99228.69;5092599;28;20187;-54
2022/06/12 06:07:00;;;;;;;6.53;3.23;;;;;;;18.98;74.71;99228.69;5092429;28;20247;-52
2022/06/12 06:09:30;;;;;;;4.90;3.27;;;;;;;19.10;73.88;99234.25;5091848;28;20263;-54
2022/06/12 06:11:57;;;;;;;6.40;3.30;;;;;;;19.23;73.33;99230.06;5092360;28;20227;-52
2022/06/12 06:14:25;;;;;;;5.17;3.40;;;;;;;19.40;72.62;99231.44;5092273;28;20205;-53
2022/06/12 06:16:52;;;;;;;4.20;3.00;;;;;;;19.52;73.31;99228.25;5092554;28;20209;-51
2022/06/12 06:19:20;;;;;;;5.70;3.33;;;;;;;19.64;71.44;99231.16;5092210;28;20194;-51
2022/06/12 06:21:47;;;;;;;5.67;3.03;;;;;;;19.80;72.00;99230.00;5092664;28;20191;-52
2022/06/12 06:24:16;;;;;;;5.83;3.07;;;;;;;19.99;71.24;99224.00;5092573;28;20601;-54
2022/06/12 06:26:44;;;;;;;3.47;2.90;;;;;;;20.12;70.30;99222.44;5092894;28;20250;-54
2022/06/12 06:29:11;;;;;;;6.40;3.00;;;;;;;20.20;70.58;99232.84;5092696;28;20677;-53
2022/06/12 06:31:39;;;;;;;5.50;3.73;;;;;;;20.34;70.80;99231.06;5092901;28;20191;-53
2022/06/12 06:34:06;;;;;;;4.53;3.13;;;;;;;20.46;68.82;99242.72;5091957;28;20533;-54
2022/06/12 06:36:34;;;;;;;3.17;2.73;;;;;;;20.51;68.04;99244.78;5092640;28;20217;-52
2022/06/12 06:39:01;;;;;;;6.30;3.73;;;;;;;20.62;67.37;99243.38;5092198;28;20612;-52
2022/06/12 06:41:30;;;;;;;4.27;3.07;;;;;;;20.79;67.51;99244.66;5092353;28;20418;-52
2022/06/12 06:46:42;;;;;;;5.30;3.97;;;;;;;20.87;64.51;99248.94;5092271;28;20195;-52
2022/06/12 06:49:10;;;;;;;7.23;4.57;;;;;;;20.90;63.30;99243.22;5090687;28;20591;-52
2022/06/12 06:51:37;;;;;;;7.70;4.63;;;;;;;20.63;63.68;99253.78;5092207;28;20649;-53
2022/06/12 06:54:05;;;;;;;7.60;4.13;;;;;;;20.87;62.98;99242.81;5092103;28;20191;-53
2022/06/12 06:56:34;;;;;;;5.77;4.33;;;;;;;20.98;63.25;99252.81;5092469;28;20591;-52
2022/06/12 06:59:01;;;;;;;8.93;4.73;;;;;;;21.06;62.47;99249.97;5091983;28;20239;-52
2022/06/12 07:01:28;;;;;;;7.60;4.53;;;;;;;21.10;62.87;99247.72;5092340;28;20193;-52
2022/06/12 07:03:55;;;;;;;4.70;4.00;;;;;;;21.15;64.48;99247.91;5095481;28;20188;-54
2022/06/12 07:06:23;;;;;;;7.93;4.03;;;;;;;21.13;63.04;99246.50;5096114;28;20184;-52
2022/06/12 07:08:51;;;;;;;6.57;4.67;;;;;;;21.22;60.40;99246.09;5095450;28;20244;-54
2022/06/12 07:11:19;;;;;;;5.63;4.33;;;;;;;21.22;60.99;99242.59;5095885;28;20242;-54
2022/06/12 07:13:48;;;;;;;8.23;4.20;;;;;;;21.37;60.91;99245.03;5095657;28;20294;-52
2022/06/12 07:16:15;;;;;;;4.73;3.87;;;;;;;21.53;61.52;99238.47;5095539;28;20752;-52
2022/06/12 07:18:42;;;;;;;5.23;4.20;;;;;;;21.66;61.32;99251.75;5095461;28;20711;-52
2022/06/12 07:21:12;;;;;;;6.63;4.57;;;;;;;21.71;60.03;99250.31;5095788;28;20286;-51
2022/06/12 07:23:40;;;;;;;7.37;4.67;;;;;;;21.55;59.71;99241.75;5094396;28;20194;-52
2022/06/12 07:26:15;;;;;;;8.07;5.00;;;;;;;21.54;59.29;99240.09;5095533;28;20189;-52
2022/06/12 07:28:43;;;;;;;9.13;4.57;;;;;;;21.62;60.28;99242.56;5095126;28;20253;-53
2022/06/12 07:31:12;;;;;;;5.27;4.00;;;;;;;21.62;59.79;99236.44;5095582;28;20183;-54
2022/06/12 07:33:39;;;;;;;7.77;4.07;;;;;;;21.69;59.43;99231.94;5095298;28;20184;-52
2022/06/12 07:36:26;;;;;;;5.90;4.33;;;;;;;21.65;61.38;99230.72;5096046;28;20197;-54
2022/06/12 07:38:54;;;;;;;7.40;4.37;;;;;;;21.73;59.14;99229.69;5095312;28;20277;-53
2022/06/12 07:41:23;;;;;;;7.60;4.23;;;;;;;21.82;58.25;99234.53;5095354;28;20191;-52
2022/06/12 07:43:51;;;;;;;6.97;4.20;;;;;;;21.82;58.55;99231.06;5095577;28;20184;-52
2022/06/12 07:46:20;;;;;;;5.53;4.00;;;;;;;21.91;59.34;99234.31;5095375;28;20190;-52
2022/06/12 07:48:48;;;;;;;11.87;3.97;;;;;;;21.95;59.29;99239.00;5094617;28;20249;-53
2022/06/12 07:51:20;;;;;;;6.60;4.00;;;;;;;22.09;59.94;99244.28;5094223;28;20188;-52
2022/06/12 07:53:50;;;;;;;5.83;4.03;;;;;;;22.14;58.58;99236.47;5095329;28;20275;-54
2022/06/12 07:56:18;;;;;;;7.03;4.23;;;;;;;22.22;60.38;99238.91;5095029;28;20245;-54
2022/06/12 07:58:46;;;;;;;5.93;4.00;;;;;;;22.30;58.98;99240.47;5094776;28;20226;-52
2022/06/12 08:01:17;;;;;;;8.17;4.30;;;;;;;22.16;58.75;99239.75;5094985;28;20184;-52
2022/06/12 08:03:46;;;;;;;6.40;4.20;;;;;;;22.33;58.59;99239.22;5094972;28;20644;-52
2022/06/12 08:06:14;;;;;;;8.30;4.30;;;;;;;22.26;60.74;99234.75;5095128;28;20188;-52
2022/06/12 08:08:42;;;;;;;8.93;4.10;;;;;;;22.38;59.76;99226.94;5094432;28;20257;-53
2022/06/12 08:11:09;;;;;;;10.03;4.20;;;;;;;;;;5093436;28;20190;-52
2022/06/12 08:13:37;;;;;;;6.03;4.30;;;;;;;22.56;59.97;99223.56;5094093;28;20196;-54
2022/06/12 08:16:05;;;;;;;6.70;3.87;;;;;;;22.67;59.36;99229.25;5094235;28;20688;-52
2022/06/12 08:18:32;;;;;;;5.60;4.30;;;;;;;22.70;58.89;99226.16;5094123;28;20208;-53
2022/06/12 08:21:04;;;;;;;4.70;4.30;;;;;;;22.69;58.19;99217.38;5094968;28;20242;-53
2022/06/12 08:23:34;;;;;;;4.87;3.73;;;;;;;22.73;58.58;99214.28;5094517;28;20647;-52
2022/06/12 08:26:05;;;;;;;7.27;4.50;;;;;;;22.70;58.52;99211.00;5094913;28;20177;-54
2022/06/12 08:28:36;;;;;;;7.07;4.43;;;;;;;22.66;58.88;99209.81;5094255;28;20212;-54
2022/06/12 08:31:07;;;;;;;7.43;3.73;;;;;;;22.87;60.63;99207.00;5095001;28;20223;-52
2022/06/12 08:33:38;;;;;;;5.73;3.93;;;;;;;22.89;57.71;99208.38;5094797;28;20218;-52
2022/06/12 08:36:08;;;;;;;8.83;4.20;;;;;;;22.97;58.60;99207.31;5094203;28;20269;-52
2022/06/12 08:38:36;;;;;;;6.10;3.90;;;;;;;23.01;58.43;99208.50;5094481;28;20213;-54
2022/06/12 08:41:09;;;;;;;5.20;4.10;;;;;;;23.04;57.93;99209.91;5094716;28;20663;-54
2022/06/12 08:43:42;;;;;;;4.20;3.70;;;;;;;23.14;57.57;99207.56;5094665;28;20200;-52
2022/06/12 08:46:14;;;;;;;6.63;4.00;;;;;;;23.26;57.54;99207.72;5094330;28;20242;-52
2022/06/12 08:48:46;;;;;;;6.10;4.33;;;;;;;23.27;56.39;99198.69;5093732;28;20219;-52
2022/06/12 08:51:23;;;;;;;4.67;3.77;;;;;;;23.29;58.01;99200.06;5094430;28;20540;-52
2022/06/12 08:53:55;;;;;;;6.10;4.03;;;;;;;23.33;57.93;99200.44;5094085;28;20546;-54
2022/06/12 08:56:29;;;;;;;5.27;3.80;;;;;;;23.44;56.61;99201.56;5094519;28;20193;-52
2022/06/12 08:59:04;;;;;;;6.30;4.23;;;;;;;23.53;56.69;99204.75;5094064;28;20746;-54
2022/06/12 09:01:31;;;;;;;5.80;4.30;;;;;;;23.63;57.08;99206.91;5094734;28;20594;-54
2022/06/12 09:03:59;;;;;;;6.27;3.90;;;;;;;23.77;57.27;99202.22;5094263;28;20189;-53
2022/06/12 09:06:39;;;;;;;6.47;3.83;;;;;;;23.87;58.16;99205.19;5094461;28;20227;-52
2022/06/12 09:09:20;;;;;;;7.23;4.73;;;;;;;23.94;56.26;99211.25;5092927;28;20213;-53
2022/06/12 09:11:51;;;;;;;4.40;4.00;;;;;;;24.00;57.10;99210.38;5094204;28;20190;-53
2022/06/12 09:14:30;;;;;;;5.53;3.67;;;;;;;24.06;56.30;99202.53;5093800;28;20197;-52
2022/06/12 09:17:08;;;;;;;6.90;3.83;;;;;;;24.18;57.58;99198.06;5094078;28;20246;-52
2022/06/12 09:19:41;;;;;;;5.23;3.77;;;;;;;24.20;56.52;99192.47;5093624;28;20177;-54
2022/06/12 09:22:18;;;;;;;6.20;3.70;;;;;;;24.25;56.15;99188.09;5093562;28;20240;-53
2022/06/12 09:24:53;;;;;;;9.33;4.10;;;;;;;24.34;56.44;99191.25;5093721;28;20216;-53
2022/06/12 09:27:27;;;;;;;7.60;4.20;;;;;;;24.36;55.69;99189.19;5093417;28;20417;-52
2022/06/12 09:30:02;;;;;;;7.47;4.03;;;;;;;24.35;55.31;99189.41;5093653;28;20203;-52
2022/06/12 09:32:39;;;;;;;8.43;4.00;;;;;;;24.53;54.91;99193.84;5093191;28;20289;-54
2022/06/12 09:35:18;;;;;;;5.00;4.20;;;;;;;24.59;54.17;99190.28;5093199;28;20256;-53
2022/06/12 09:38:20;;;;;;;6.93;3.50;;;;;;;24.51;52.13;99196.75;5093134;28;20204;-53
2022/06/12 09:41:00;;;;;;;9.93;3.53;;;;;;;24.70;52.96;99197.50;5093238;28;20197;-53
2022/06/12 09:43:35;;;;;;;5.73;3.60;;;;;;;24.84;53.32;99200.78;5093631;28;20580;-54
2022/06/12 09:46:07;;;;;;;7.87;3.80;;;;;;;24.85;52.40;99202.41;5093253;28;20193;-53
2022/06/12 09:48:54;;;;;;;6.40;3.50;;;;;;;24.84;52.59;99195.44;5091057;28;20212;-54
2022/06/12 09:51:54;;;;;;;5.10;3.30;;;;;;;24.82;51.24;99197.53;5093551;28;20247;-52
2022/06/12 09:54:44;;;;;;;5.33;3.40;;;;;;;24.97;49.75;99194.41;5093901;28;20188;-55
2022/06/12 09:57:22;;;;;;;4.50;2.90;;;;;;;24.97;48.48;99188.25;5093801;28;20185;-55
2022/06/12 09:59:56;;;;;;;6.70;3.20;;;;;;;25.03;49.29;99187.31;5093726;28;20174;-55
2022/06/12 10:02:31;;;;;;;3.30;2.80;;;;;;;25.13;48.83;99192.91;5093613;28;20233;-54
2022/06/12 10:05:04;;;;;;;4.60;2.97;;;;;;;25.19;49.16;99183.13;5092791;28;20187;-52
2022/06/12 10:07:42;;;;;;;6.23;3.10;;;;;;;25.13;49.34;99179.53;5092915;28;20203;-51
2022/06/12 10:10:20;;;;;;;4.73;2.57;;;;;;;25.39;48.98;99174.75;5092840;28;20248;-52
2022/06/12 10:12:52;;;;;;;7.53;3.00;;;;;;;25.30;46.52;99170.81;5093282;28;20186;-53
2022/06/12 10:15:26;;;;;;;5.70;2.50;;;;;;;25.45;46.20;99163.13;5092934;28;20201;-53
2022/06/12 10:18:03;;;;;;;6.60;2.50;;;;;;;25.42;45.84;99168.13;5092254;28;20252;-51
2022/06/12 10:20:35;;;;;;;4.33;2.50;;;;;;;25.66;46.41;99160.88;5092628;28;20184;-51
2022/06/12 10:23:02;;;;;;;6.17;2.87;;;;;;;25.60;45.91;99159.97;5091316;28;20194;-53
2022/06/12 10:25:34;;;;;;;5.37;3.27;;;;;;;25.75;48.47;99154.13;5091383;28;20225;-50
2022/06/12 10:28:04;;;;;;;5.50;3.17;;;;;;;25.78;46.02;99147.50;5092246;28;20211;-51
2022/06/12 10:30:37;;;;;;;7.47;3.10;;;;;;;25.93;47.08;99144.28;5092679;28;20222;-51
2022/06/12 10:33:19;;;;;;;6.00;3.00;;;;;;;25.97;46.47;99142.75;5092562;28;20279;-53
2022/06/12 10:35:49;;;;;;;6.67;2.70;;;;;;;26.18;46.07;99137.81;5092454;28;20705;-55
2022/06/12 10:38:18;;;;;;;3.33;2.60;;;;;;;25.98;43.93;99138.19;5094167;28;20215;-54
2022/06/12 10:40:53;;;;;;;5.03;2.60;;;;;;;26.20;44.93;99149.06;5096803;28;20183;-54
2022/06/12 10:43:44;;;;;;;4.53;2.60;;;;;;;26.00;44.98;99144.94;5097032;28;20320;-51
2022/06/12 10:46:19;;;;;;;6.57;2.40;;;;;;;26.05;45.30;99152.25;5096472;28;20568;-50
2022/06/12 10:48:57;;;;;;;4.60;2.67;;;;;;;26.14;43.88;99144.69;5095888;28;20199;-55
2022/06/12 10:51:28;;;;;;;7.03;2.77;;;;;;;26.16;44.09;99139.91;5095975;28;20214;-55
2022/06/12 10:54:01;;;;;;;4.00;2.33;;;;;;;26.08;43.75;99136.53;5094960;28;20184;-54
2022/06/12 10:56:40;;;;;;;4.67;2.30;;;;;;;26.07;43.92;99134.91;5094825;28;20214;-54
2022/06/12 10:59:30;;;;;;;5.40;2.67;;;;;;;26.42;44.30;99138.47;5095645;28;20223;-52
2022/06/12 11:02:32;;;;;;;9.23;2.40;;;;;;;26.79;42.79;99126.44;5095809;28;20184;-54
2022/06/12 11:05:10;;;;;;;4.17;2.77;;;;;;;27.21;43.07;99117.09;5095738;28;20188;-52
2022/06/12 11:07:45;;;;;;;3.33;2.60;;;;;;;27.23;42.22;99121.19;5095404;28;20223;-52
2022/06/12 11:10:25;;;;;;;5.13;2.72;;;;;;;27.31;42.18;99129.84;5095574;28;20691;-52
2022/06/12 11:13:19;;;;;;;6.63;2.70;;;;;;;27.51;41.22;99116.72;5095821;28;20189;-52
2022/06/12 11:16:11;;;;;;;4.10;2.40;;;;;;;27.69;43.08;99120.09;5094366;28;20701;-55
2022/06/12 11:18:57;;;;;;;6.33;2.77;;;;;;;27.32;41.29;99115.38;5095112;28;20683;-52
2022/06/12 11:21:35;;;;;;;5.63;2.57;;;;;;;27.58;42.03;99113.00;5095514;28;20628;-52
2022/06/12 11:24:12;;;;;;;4.28;2.28;;;;;;;28.01;42.21;99114.00;5095488;28;20192;-55
2022/06/12 11:27:07;;;;;;;5.10;2.17;;;;;;;28.37;38.46;99116.19;5095378;28;20206;-55
2022/06/12 11:29:53;;;;;;;3.40;2.08;;;;;;;27.99;37.18;99113.44;5091946;28;20215;-52
2022/06/12 11:33:02;;;;;;;5.60;2.30;;;;;;;28.34;37.46;99105.97;5095921;28;20504;-53
2022/06/12 11:35:41;;;;;;;4.47;2.27;;;;;;;28.56;39.40;99108.56;5095184;28;20398;-52
2022/06/12 11:38:38;;;;;;;4.70;1.98;;;;;;;28.46;36.79;99105.81;5094782;28;20239;-54
2022/06/12 11:41:15;;;;;;;3.88;2.05;;;;;;;28.46;38.88;99103.91;5093930;28;20193;-53
2022/06/12 11:43:44;;;;;;;4.97;1.83;;;;;;;28.23;37.22;99097.03;5094857;28;20263;-53
2022/06/12 11:46:24;;;;;;;5.15;1.92;;;;;;;28.10;36.66;99101.72;5095031;28;20664;-52
2022/06/12 11:49:33;;;;;;;5.32;2.20;;;;;;;28.34;37.33;99100.59;5093050;28;20230;-53
2022/06/12 11:52:25;;;;;;;4.45;1.90;;;;;;;28.32;37.71;99092.81;5084621;28;20656;-51
2022/06/12 11:55:18;;;;;;;5.70;1.98;;;;;;;28.80;36.52;99103.63;5094932;28;20187;-53
2022/06/12 11:57:58;;;;;;;2.80;1.60;;;;;;;29.18;34.40;99098.19;5091868;28;20278;-53
2022/06/12 12:00:34;;;;;;;3.45;1.90;;;;;;;28.75;34.19;99097.38;5095219;28;20176;-55
2022/06/12 12:03:35;;;;;;;7.00;1.85;;;;;;;28.94;33.97;99093.22;5094848;28;20193;-55
2022/06/12 12:06:17;;;;;;;5.30;1.60;;;;;;;28.73;34.31;99086.91;5094601;28;20205;-55
2022/06/12 12:09:03;;;;;;;4.10;1.70;;;;;;;29.12;34.96;99094.66;5093874;28;20217;-55
2022/06/12 12:11:35;;;;;;;2.88;1.50;;;;;;;29.60;30.51;99088.38;5094725;28;20646;-55
2022/06/12 12:14:07;;;;;;;4.38;1.33;;;;;;;29.51;32.13;99088.09;5094698;28;20198;-53